sensor_id;sensor_type;location;lat;lon;timestamp;P1;durP1;ratioP1;P2;durP2;ratioP2
3745;SDS011;1888;49.890;10.884;2022-09-03T00:00:26;16.67;;;16.07;;
3745;SDS011;1888;49.890;10.884;2022-09-03T00:02:58;16.57;;;15.97;;
3745;SDS011;1888;49.890;10.884;2022-09-03T00:05:38;16.63;;;16.03;;
3745;SDS011;1888;49.890;10.884;2022-09-03T00:08:09;16.60;;;16.00;;
3745;SDS011;1888;49.890;10.884;2022-09-03T00:10:42;16.60;;;16.00;;
3745;SDS011;1888;49.890;10.884;2022-09-03T00:13:13;16.37;;;15.77;;
3745;SDS011;1888;49.890;10.884;2022-09-03T00:15:42;16.80;;;16.20;;
3745;SDS011;1888;49.890;10.884;2022-09-03T00:18:11;16.60;;;16.00;;
3745;SDS011;1888;49.890;10.884;2022-09-03T00:20:44;16.57;;;15.97;;
3745;SDS011;1888;49.890;10.884;2022-09-03T00:23:15;16.67;;;16.07;;
3745;SDS011;1888;49.890;10.884;2022-09-03T00:25:46;16.70;;;16.10;;
3745;SDS011;1888;49.890;10.884;2022-09-03T00:28:17;16.67;;;16.07;;
3745;SDS011;1888;49.890;10.884;2022-09-03T00:30:49;16.80;;;16.20;;
3745;SDS011;1888;49.890;10.884;2022-09-03T00:33:22;16.70;;;16.10;;
3745;SDS011;1888;49.890;10.884;2022-09-03T00:35:53;16.50;;;15.90;;
3745;SDS011;1888;49.890;10.884;2022-09-03T00:38:22;16.80;;;16.20;;
3745;SDS011;1888;49.890;10.884;2022-09-03T00:41:02;16.60;;;16.00;;
3745;SDS011;1888;49.890;10.884;2022-09-03T00:43:35;16.70;;;16.10;;
3745;SDS011;1888;49.890;10.884;2022-09-03T00:46:12;16.60;;;16.00;;
3745;SDS011;1888;49.890;10.884;2022-09-03T00:48:47;16.63;;;16.03;;
3745;SDS011;1888;49.890;10.884;2022-09-03T00:51:21;16.40;;;15.80;;
3745;SDS011;1888;49.890;10.884;2022-09-03T00:53:56;16.80;;;16.20;;
3745;SDS011;1888;49.890;10.884;2022-09-03T00:56:27;16.30;;;15.70;;
3745;SDS011;1888;49.890;10.884;2022-09-03T00:59:01;16.50;;;15.90;;
3745;SDS011;1888;49.890;10.884;2022-09-03T01:01:33;16.47;;;15.87;;
3745;SDS011;1888;49.890;10.884;2022-09-03T01:04:05;16.60;;;16.00;;
3745;SDS011;1888;49.890;10.884;2022-09-03T01:06:38;16.03;;;15.50;;
3745;SDS011;1888;49.890;10.884;2022-09-03T01:09:13;16.37;;;15.77;;
3745;SDS011;1888;49.890;10.884;2022-09-03T01:11:47;16.30;;;15.70;;
3745;SDS011;1888;49.890;10.884;2022-09-03T01:14:22;16.57;;;15.97;;
3745;SDS011;1888;49.890;10.884;2022-09-03T01:16:53;16.10;;;15.53;;
3745;SDS011;1888;49.890;10.884;2022-09-03T01:22:20;16.33;;;15.73;;
3745;SDS011;1888;49.890;10.884;2022-09-03T01:24:55;16.37;;;15.77;;
3745;SDS011;1888;49.890;10.884;2022-09-03T01:27:30;16.43;;;15.83;;
3745;SDS011;1888;49.890;10.884;2022-09-03T01:30:04;15.90;;;15.40;;
3745;SDS011;1888;49.890;10.884;2022-09-03T01:32:36;15.93;;;15.40;;
3745;SDS011;1888;49.890;10.884;2022-09-03T01:35:09;15.80;;;15.30;;
3745;SDS011;1888;49.890;10.884;2022-09-03T01:37:43;15.70;;;15.20;;
3745;SDS011;1888;49.890;10.884;2022-09-03T01:43:24;15.53;;;15.03;;
3745;SDS011;1888;49.890;10.884;2022-09-03T01:46:00;15.97;;;15.47;;
3745;SDS011;1888;49.890;10.884;2022-09-03T01:48:31;15.67;;;15.17;;
3745;SDS011;1888;49.890;10.884;2022-09-03T01:51:02;15.90;;;15.40;;
3745;SDS011;1888;49.890;10.884;2022-09-03T01:53:39;15.90;;;15.40;;
3745;SDS011;1888;49.890;10.884;2022-09-03T01:56:16;15.50;;;15.00;;
3745;SDS011;1888;49.890;10.884;2022-09-03T01:58:47;15.50;;;15.00;;
3745;SDS011;1888;49.890;10.884;2022-09-03T02:01:23;15.30;;;14.80;;
3745;SDS011;1888;49.890;10.884;2022-09-03T02:03:52;15.43;;;14.93;;
3745;SDS011;1888;49.890;10.884;2022-09-03T02:06:23;15.70;;;15.20;;
3745;SDS011;1888;49.890;10.884;2022-09-03T02:08:51;15.17;;;14.67;;
3745;SDS011;1888;49.890;10.884;2022-09-03T02:11:19;15.47;;;14.97;;
3745;SDS011;1888;49.890;10.884;2022-09-03T02:13:46;15.40;;;14.90;;
3745;SDS011;1888;49.890;10.884;2022-09-03T02:16:17;15.53;;;15.03;;
3745;SDS011;1888;49.890;10.884;2022-09-03T02:18:49;15.40;;;14.90;;
3745;SDS011;1888;49.890;10.884;2022-09-03T02:21:19;15.57;;;15.07;;
3745;SDS011;1888;49.890;10.884;2022-09-03T02:23:48;15.47;;;14.97;;
3745;SDS011;1888;49.890;10.884;2022-09-03T02:26:17;15.20;;;14.70;;
3745;SDS011;1888;49.890;10.884;2022-09-03T02:28:45;15.30;;;14.80;;
3745;SDS011;1888;49.890;10.884;2022-09-03T02:31:13;15.23;;;14.73;;
3745;SDS011;1888;49.890;10.884;2022-09-03T02:33:43;14.90;;;14.40;;
3745;SDS011;1888;49.890;10.884;2022-09-03T02:36:14;14.40;;;14.00;;
3745;SDS011;1888;49.890;10.884;2022-09-03T02:38:43;13.80;;;13.40;;
3745;SDS011;1888;49.890;10.884;2022-09-03T02:41:11;13.83;;;13.43;;
3745;SDS011;1888;49.890;10.884;2022-09-03T02:43:40;14.20;;;13.80;;
3745;SDS011;1888;49.890;10.884;2022-09-03T02:46:09;13.77;;;13.37;;
3745;SDS011;1888;49.890;10.884;2022-09-03T02:48:38;13.60;;;13.20;;
3745;SDS011;1888;49.890;10.884;2022-09-03T02:51:07;13.43;;;13.03;;
3745;SDS011;1888;49.890;10.884;2022-09-03T02:53:36;13.67;;;13.27;;
3745;SDS011;1888;49.890;10.884;2022-09-03T02:56:04;13.73;;;13.33;;
3745;SDS011;1888;49.890;10.884;2022-09-03T02:58:32;13.73;;;13.33;;
3745;SDS011;1888;49.890;10.884;2022-09-03T03:00:59;13.83;;;13.43;;
3745;SDS011;1888;49.890;10.884;2022-09-03T03:03:27;13.63;;;13.23;;
3745;SDS011;1888;49.890;10.884;2022-09-03T03:05:56;13.70;;;13.30;;
3745;SDS011;1888;49.890;10.884;2022-09-03T03:08:25;13.73;;;13.33;;
3745;SDS011;1888;49.890;10.884;2022-09-03T03:11:04;13.63;;;13.23;;
3745;SDS011;1888;49.890;10.884;2022-09-03T03:13:37;13.23;;;12.83;;
3745;SDS011;1888;49.890;10.884;2022-09-03T03:16:12;13.70;;;13.30;;
3745;SDS011;1888;49.890;10.884;2022-09-03T03:18:41;13.63;;;13.23;;
3745;SDS011;1888;49.890;10.884;2022-09-03T03:21:10;13.83;;;13.43;;
3745;SDS011;1888;49.890;10.884;2022-09-03T03:23:38;13.33;;;12.93;;
3745;SDS011;1888;49.890;10.884;2022-09-03T03:26:08;13.23;;;12.90;;
3745;SDS011;1888;49.890;10.884;2022-09-03T03:28:36;13.50;;;13.10;;
3745;SDS011;1888;49.890;10.884;2022-09-03T03:31:06;13.40;;;13.00;;
3745;SDS011;1888;49.890;10.884;2022-09-03T03:33:34;13.20;;;12.80;;
3745;SDS011;1888;49.890;10.884;2022-09-03T03:36:03;13.07;;;12.70;;
3745;SDS011;1888;49.890;10.884;2022-09-03T03:38:31;13.00;;;12.70;;
3745;SDS011;1888;49.890;10.884;2022-09-03T03:40:58;12.90;;;12.60;;
3745;SDS011;1888;49.890;10.884;2022-09-03T03:43:28;13.30;;;12.90;;
3745;SDS011;1888;49.890;10.884;2022-09-03T03:45:56;12.70;;;12.40;;
3745;SDS011;1888;49.890;10.884;2022-09-03T03:48:23;13.23;;;12.83;;
3745;SDS011;1888;49.890;10.884;2022-09-03T03:50:51;12.87;;;12.57;;
3745;SDS011;1888;49.890;10.884;2022-09-03T03:53:19;12.80;;;12.50;;
3745;SDS011;1888;49.890;10.884;2022-09-03T03:55:53;13.50;;;13.10;;
3745;SDS011;1888;49.890;10.884;2022-09-03T03:58:21;12.90;;;12.60;;
3745;SDS011;1888;49.890;10.884;2022-09-03T04:00:51;12.73;;;12.43;;
3745;SDS011;1888;49.890;10.884;2022-09-03T04:03:18;12.30;;;12.00;;
3745;SDS011;1888;49.890;10.884;2022-09-03T04:05:53;12.50;;;12.20;;
3745;SDS011;1888;49.890;10.884;2022-09-03T04:08:21;12.67;;;12.37;;
3745;SDS011;1888;49.890;10.884;2022-09-03T04:10:49;12.87;;;12.57;;
3745;SDS011;1888;49.890;10.884;2022-09-03T04:13:17;12.60;;;12.30;;
3745;SDS011;1888;49.890;10.884;2022-09-03T04:15:44;12.47;;;12.17;;
3745;SDS011;1888;49.890;10.884;2022-09-03T04:18:14;12.57;;;12.27;;
3745;SDS011;1888;49.890;10.884;2022-09-03T04:20:41;12.60;;;12.30;;
3745;SDS011;1888;49.890;10.884;2022-09-03T04:23:09;12.60;;;12.30;;
3745;SDS011;1888;49.890;10.884;2022-09-03T04:25:37;12.40;;;12.10;;
3745;SDS011;1888;49.890;10.884;2022-09-03T04:28:06;12.60;;;12.30;;
3745;SDS011;1888;49.890;10.884;2022-09-03T04:30:33;12.50;;;12.20;;
3745;SDS011;1888;49.890;10.884;2022-09-03T04:33:01;12.00;;;11.70;;
3745;SDS011;1888;49.890;10.884;2022-09-03T04:35:29;12.20;;;11.90;;
3745;SDS011;1888;49.890;10.884;2022-09-03T04:37:58;12.07;;;11.77;;
3745;SDS011;1888;49.890;10.884;2022-09-03T04:40:26;12.50;;;12.20;;
3745;SDS011;1888;49.890;10.884;2022-09-03T04:42:55;12.30;;;12.00;;
3745;SDS011;1888;49.890;10.884;2022-09-03T04:45:25;11.80;;;11.50;;
3745;SDS011;1888;49.890;10.884;2022-09-03T04:47:57;12.30;;;12.00;;
3745;SDS011;1888;49.890;10.884;2022-09-03T04:50:27;12.13;;;11.83;;
3745;SDS011;1888;49.890;10.884;2022-09-03T04:52:57;12.37;;;12.07;;
3745;SDS011;1888;49.890;10.884;2022-09-03T04:55:26;12.10;;;11.80;;
3745;SDS011;1888;49.890;10.884;2022-09-03T04:57:54;12.40;;;12.10;;
3745;SDS011;1888;49.890;10.884;2022-09-03T05:00:22;12.00;;;11.70;;
3745;SDS011;1888;49.890;10.884;2022-09-03T05:02:49;12.30;;;12.00;;
3745;SDS011;1888;49.890;10.884;2022-09-03T05:05:17;12.50;;;12.20;;
3745;SDS011;1888;49.890;10.884;2022-09-03T05:07:45;12.20;;;11.90;;
3745;SDS011;1888;49.890;10.884;2022-09-03T05:10:14;12.27;;;11.97;;
3745;SDS011;1888;49.890;10.884;2022-09-03T05:12:44;12.30;;;12.00;;
3745;SDS011;1888;49.890;10.884;2022-09-03T05:15:14;12.00;;;11.70;;
3745;SDS011;1888;49.890;10.884;2022-09-03T05:17:41;12.10;;;11.80;;
3745;SDS011;1888;49.890;10.884;2022-09-03T05:20:09;12.50;;;12.20;;
3745;SDS011;1888;49.890;10.884;2022-09-03T05:22:37;12.40;;;12.10;;
3745;SDS011;1888;49.890;10.884;2022-09-03T05:25:06;12.77;;;12.47;;
3745;SDS011;1888;49.890;10.884;2022-09-03T05:27:35;12.40;;;12.10;;
3745;SDS011;1888;49.890;10.884;2022-09-03T05:30:03;12.80;;;12.50;;
3745;SDS011;1888;49.890;10.884;2022-09-03T05:32:31;12.50;;;12.20;;
3745;SDS011;1888;49.890;10.884;2022-09-03T05:34:59;12.53;;;12.23;;
3745;SDS011;1888;49.890;10.884;2022-09-03T05:37:27;12.50;;;12.20;;
3745;SDS011;1888;49.890;10.884;2022-09-03T05:39:54;13.10;;;12.80;;
3745;SDS011;1888;49.890;10.884;2022-09-03T05:42:22;13.30;;;12.90;;
3745;SDS011;1888;49.890;10.884;2022-09-03T05:44:51;13.30;;;13.00;;
3745;SDS011;1888;49.890;10.884;2022-09-03T05:47:19;12.70;;;12.40;;
3745;SDS011;1888;49.890;10.884;2022-09-03T05:49:46;12.87;;;12.57;;
3745;SDS011;1888;49.890;10.884;2022-09-03T05:52:14;13.00;;;12.70;;
3745;SDS011;1888;49.890;10.884;2022-09-03T05:54:43;13.13;;;12.83;;
3745;SDS011;1888;49.890;10.884;2022-09-03T05:57:12;13.17;;;12.87;;
3745;SDS011;1888;49.890;10.884;2022-09-03T05:59:39;13.57;;;13.17;;
3745;SDS011;1888;49.890;10.884;2022-09-03T06:02:09;13.20;;;12.90;;
3745;SDS011;1888;49.890;10.884;2022-09-03T06:04:36;13.00;;;12.70;;
3745;SDS011;1888;49.890;10.884;2022-09-03T06:07:04;13.87;;;13.47;;
3745;SDS011;1888;49.890;10.884;2022-09-03T06:09:33;13.63;;;13.23;;
3745;SDS011;1888;49.890;10.884;2022-09-03T06:12:00;13.97;;;13.57;;
3745;SDS011;1888;49.890;10.884;2022-09-03T06:14:28;13.87;;;13.47;;
3745;SDS011;1888;49.890;10.884;2022-09-03T06:16:58;13.90;;;13.50;;
3745;SDS011;1888;49.890;10.884;2022-09-03T06:19:29;14.33;;;13.93;;
3745;SDS011;1888;49.890;10.884;2022-09-03T06:21:56;14.63;;;14.23;;
3745;SDS011;1888;49.890;10.884;2022-09-03T06:24:24;14.87;;;14.47;;
3745;SDS011;1888;49.890;10.884;2022-09-03T06:26:54;14.80;;;14.40;;
3745;SDS011;1888;49.890;10.884;2022-09-03T06:29:22;15.13;;;14.63;;
3745;SDS011;1888;49.890;10.884;2022-09-03T06:31:49;15.43;;;14.93;;
3745;SDS011;1888;49.890;10.884;2022-09-03T06:34:17;15.27;;;14.77;;
3745;SDS011;1888;49.890;10.884;2022-09-03T06:36:48;15.40;;;14.90;;
3745;SDS011;1888;49.890;10.884;2022-09-03T06:39:17;15.37;;;14.87;;
3745;SDS011;1888;49.890;10.884;2022-09-03T06:41:44;15.50;;;15.00;;
3745;SDS011;1888;49.890;10.884;2022-09-03T06:44:16;15.30;;;14.80;;
3745;SDS011;1888;49.890;10.884;2022-09-03T06:46:43;15.63;;;15.13;;
3745;SDS011;1888;49.890;10.884;2022-09-03T06:52:18;15.67;;;15.17;;
3745;SDS011;1888;49.890;10.884;2022-09-03T06:54:46;15.87;;;15.37;;
3745;SDS011;1888;49.890;10.884;2022-09-03T06:57:14;15.67;;;15.17;;
3745;SDS011;1888;49.890;10.884;2022-09-03T06:59:42;15.50;;;15.00;;
3745;SDS011;1888;49.890;10.884;2022-09-03T07:02:14;15.50;;;15.00;;
3745;SDS011;1888;49.890;10.884;2022-09-03T07:04:47;15.57;;;15.07;;
3745;SDS011;1888;49.890;10.884;2022-09-03T07:07:24;15.63;;;15.13;;
3745;SDS011;1888;49.890;10.884;2022-09-03T07:12:58;15.50;;;15.00;;
3745;SDS011;1888;49.890;10.884;2022-09-03T07:15:28;15.63;;;15.13;;
3745;SDS011;1888;49.890;10.884;2022-09-03T07:17:57;15.63;;;15.13;;
3745;SDS011;1888;49.890;10.884;2022-09-03T07:20:27;15.30;;;14.80;;
3745;SDS011;1888;49.890;10.884;2022-09-03T07:31:06;15.80;;;15.30;;
3745;SDS011;1888;49.890;10.884;2022-09-03T07:33:43;15.50;;;15.00;;
3745;SDS011;1888;49.890;10.884;2022-09-03T07:44:55;15.27;;;14.77;;
3745;SDS011;1888;49.890;10.884;2022-09-03T07:47:44;15.40;;;14.90;;
3745;SDS011;1888;49.890;10.884;2022-09-03T07:50:13;15.30;;;14.80;;
3745;SDS011;1888;49.890;10.884;2022-09-03T07:52:42;15.13;;;14.63;;
3745;SDS011;1888;49.890;10.884;2022-09-03T07:55:24;14.90;;;14.50;;
3745;SDS011;1888;49.890;10.884;2022-09-03T07:58:05;15.10;;;14.60;;
3745;SDS011;1888;49.890;10.884;2022-09-03T08:00:49;15.07;;;14.57;;
3745;SDS011;1888;49.890;10.884;2022-09-03T08:03:20;15.10;;;14.60;;
3745;SDS011;1888;49.890;10.884;2022-09-03T08:05:49;14.80;;;14.40;;
3745;SDS011;1888;49.890;10.884;2022-09-03T08:08:17;15.13;;;14.63;;
3745;SDS011;1888;49.890;10.884;2022-09-03T08:11:03;14.90;;;14.40;;
3745;SDS011;1888;49.890;10.884;2022-09-03T08:13:37;14.53;;;14.13;;
3745;SDS011;1888;49.890;10.884;2022-09-03T08:16:18;15.30;;;14.80;;
3745;SDS011;1888;49.890;10.884;2022-09-03T08:36:41;14.60;;;14.20;;
3745;SDS011;1888;49.890;10.884;2022-09-03T08:39:11;14.63;;;14.23;;
3745;SDS011;1888;49.890;10.884;2022-09-03T08:41:47;14.53;;;14.13;;
3745;SDS011;1888;49.890;10.884;2022-09-03T08:44:30;14.60;;;14.20;;
3745;SDS011;1888;49.890;10.884;2022-09-03T08:47:16;14.57;;;14.17;;
3745;SDS011;1888;49.890;10.884;2022-09-03T08:52:59;14.43;;;14.03;;
3745;SDS011;1888;49.890;10.884;2022-09-03T08:55:46;14.80;;;14.40;;
3745;SDS011;1888;49.890;10.884;2022-09-03T08:58:18;14.50;;;14.10;;
3745;SDS011;1888;49.890;10.884;2022-09-03T09:00:51;15.03;;;14.63;;
3745;SDS011;1888;49.890;10.884;2022-09-03T09:03:33;14.67;;;14.27;;
3745;SDS011;1888;49.890;10.884;2022-09-03T09:06:11;14.77;;;14.37;;
3745;SDS011;1888;49.890;10.884;2022-09-03T09:09:02;14.20;;;13.80;;
3745;SDS011;1888;49.890;10.884;2022-09-03T09:11:49;14.67;;;14.27;;
3745;SDS011;1888;49.890;10.884;2022-09-03T09:17:44;14.77;;;14.37;;
3745;SDS011;1888;49.890;10.884;2022-09-03T09:20:41;14.70;;;14.30;;
3745;SDS011;1888;49.890;10.884;2022-09-03T09:23:12;14.50;;;14.10;;
3745;SDS011;1888;49.890;10.884;2022-09-03T09:26:00;14.70;;;14.30;;
3745;SDS011;1888;49.890;10.884;2022-09-03T09:28:45;14.80;;;14.40;;
3745;SDS011;1888;49.890;10.884;2022-09-03T09:31:16;14.77;;;14.37;;
3745;SDS011;1888;49.890;10.884;2022-09-03T09:33:51;14.30;;;13.90;;
3745;SDS011;1888;49.890;10.884;2022-09-03T09:36:24;14.20;;;13.80;;
3745;SDS011;1888;49.890;10.884;2022-09-03T09:42:12;14.50;;;14.10;;
3745;SDS011;1888;49.890;10.884;2022-09-03T09:44:41;14.70;;;14.30;;
3745;SDS011;1888;49.890;10.884;2022-09-03T09:47:22;14.70;;;14.30;;
3745;SDS011;1888;49.890;10.884;2022-09-03T09:49:55;14.37;;;13.97;;
3745;SDS011;1888;49.890;10.884;2022-09-03T09:52:29;14.27;;;13.87;;
3745;SDS011;1888;49.890;10.884;2022-09-03T09:55:16;14.30;;;13.90;;
3745;SDS011;1888;49.890;10.884;2022-09-03T09:57:56;14.63;;;14.23;;
3745;SDS011;1888;49.890;10.884;2022-09-03T10:00:36;15.10;;;14.70;;
3745;SDS011;1888;49.890;10.884;2022-09-03T10:03:09;13.93;;;13.53;;
3745;SDS011;1888;49.890;10.884;2022-09-03T10:09:04;14.50;;;14.10;;
3745;SDS011;1888;49.890;10.884;2022-09-03T10:11:47;14.50;;;14.10;;
3745;SDS011;1888;49.890;10.884;2022-09-03T10:32:27;14.67;;;14.27;;
3745;SDS011;1888;49.890;10.884;2022-09-03T10:35:03;14.37;;;13.97;;
3745;SDS011;1888;49.890;10.884;2022-09-03T10:37:37;14.30;;;13.90;;
3745;SDS011;1888;49.890;10.884;2022-09-03T10:40:17;14.27;;;13.87;;
3745;SDS011;1888;49.890;10.884;2022-09-03T10:42:56;14.50;;;14.10;;
3745;SDS011;1888;49.890;10.884;2022-09-03T10:45:34;14.30;;;13.90;;
3745;SDS011;1888;49.890;10.884;2022-09-03T11:14:29;14.67;;;14.27;;
3745;SDS011;1888;49.890;10.884;2022-09-03T11:17:00;14.87;;;14.47;;
3745;SDS011;1888;49.890;10.884;2022-09-03T11:19:32;14.80;;;14.40;;
3745;SDS011;1888;49.890;10.884;2022-09-03T11:22:01;14.70;;;14.30;;
3745;SDS011;1888;49.890;10.884;2022-09-03T11:24:31;14.70;;;14.30;;
3745;SDS011;1888;49.890;10.884;2022-09-03T11:27:04;15.00;;;14.60;;
3745;SDS011;1888;49.890;10.884;2022-09-03T11:29:38;14.57;;;14.17;;
3745;SDS011;1888;49.890;10.884;2022-09-03T11:32:23;14.20;;;13.80;;
3745;SDS011;1888;49.890;10.884;2022-09-03T11:34:54;14.60;;;14.20;;
3745;SDS011;1888;49.890;10.884;2022-09-03T11:37:43;14.60;;;14.20;;
3745;SDS011;1888;49.890;10.884;2022-09-03T11:40:13;14.40;;;14.00;;
3745;SDS011;1888;49.890;10.884;2022-09-03T11:45:59;14.50;;;14.10;;
3745;SDS011;1888;49.890;10.884;2022-09-03T11:48:39;14.27;;;13.87;;
3745;SDS011;1888;49.890;10.884;2022-09-03T11:51:18;14.67;;;14.27;;
3745;SDS011;1888;49.890;10.884;2022-09-03T11:53:53;14.40;;;14.00;;
3745;SDS011;1888;49.890;10.884;2022-09-03T11:56:22;15.00;;;14.50;;
3745;SDS011;1888;49.890;10.884;2022-09-03T12:01:43;14.30;;;13.90;;
3745;SDS011;1888;49.890;10.884;2022-09-03T12:04:12;14.50;;;14.10;;
3745;SDS011;1888;49.890;10.884;2022-09-03T12:09:46;14.53;;;14.13;;
3745;SDS011;1888;49.890;10.884;2022-09-03T12:12:30;14.73;;;14.33;;
3745;SDS011;1888;49.890;10.884;2022-09-03T12:15:09;15.00;;;14.50;;
3745;SDS011;1888;49.890;10.884;2022-09-03T12:17:46;14.50;;;14.10;;
3745;SDS011;1888;49.890;10.884;2022-09-03T12:23:42;15.13;;;14.63;;
3745;SDS011;1888;49.890;10.884;2022-09-03T12:26:11;14.73;;;14.33;;
3745;SDS011;1888;49.890;10.884;2022-09-03T12:28:41;14.33;;;13.93;;
3745;SDS011;1888;49.890;10.884;2022-09-03T12:31:13;14.27;;;13.87;;
3745;SDS011;1888;49.890;10.884;2022-09-03T12:33:57;14.63;;;14.23;;
3745;SDS011;1888;49.890;10.884;2022-09-03T12:36:35;14.50;;;14.10;;
3745;SDS011;1888;49.890;10.884;2022-09-03T12:39:12;14.60;;;14.20;;
3745;SDS011;1888;49.890;10.884;2022-09-03T12:41:48;14.50;;;14.10;;
3745;SDS011;1888;49.890;10.884;2022-09-03T12:44:23;14.70;;;14.30;;
3745;SDS011;1888;49.890;10.884;2022-09-03T12:46:59;14.80;;;14.40;;
3745;SDS011;1888;49.890;10.884;2022-09-03T12:49:35;14.97;;;14.50;;
3745;SDS011;1888;49.890;10.884;2022-09-03T12:52:04;15.17;;;14.67;;
3745;SDS011;1888;49.890;10.884;2022-09-03T12:54:35;15.00;;;14.60;;
3745;SDS011;1888;49.890;10.884;2022-09-03T12:57:18;14.90;;;14.50;;
3745;SDS011;1888;49.890;10.884;2022-09-03T12:59:53;14.50;;;14.10;;
3745;SDS011;1888;49.890;10.884;2022-09-03T13:06:09;15.10;;;14.60;;
3745;SDS011;1888;49.890;10.884;2022-09-03T13:08:42;15.30;;;14.80;;
3745;SDS011;1888;49.890;10.884;2022-09-03T13:11:14;14.70;;;14.30;;
3745;SDS011;1888;49.890;10.884;2022-09-03T13:17:06;15.10;;;14.60;;
3745;SDS011;1888;49.890;10.884;2022-09-03T13:19:39;15.27;;;14.77;;
3745;SDS011;1888;49.890;10.884;2022-09-03T13:25:36;14.87;;;14.40;;
3745;SDS011;1888;49.890;10.884;2022-09-03T13:28:06;14.87;;;14.47;;
3745;SDS011;1888;49.890;10.884;2022-09-03T13:30:40;15.40;;;14.90;;
3745;SDS011;1888;49.890;10.884;2022-09-03T13:33:15;14.60;;;14.20;;
3745;SDS011;1888;49.890;10.884;2022-09-03T13:36:01;15.07;;;14.67;;
3745;SDS011;1888;49.890;10.884;2022-09-03T13:38:31;15.00;;;14.50;;
3745;SDS011;1888;49.890;10.884;2022-09-03T13:41:19;14.80;;;14.40;;
3745;SDS011;1888;49.890;10.884;2022-09-03T13:43:50;14.80;;;14.40;;
3745;SDS011;1888;49.890;10.884;2022-09-03T13:46:22;15.13;;;14.70;;
3745;SDS011;1888;49.890;10.884;2022-09-03T13:48:51;15.00;;;14.60;;
3745;SDS011;1888;49.890;10.884;2022-09-03T13:51:42;15.00;;;14.60;;
3745;SDS011;1888;49.890;10.884;2022-09-03T13:54:14;15.27;;;14.77;;
3745;SDS011;1888;49.890;10.884;2022-09-03T13:56:52;14.90;;;14.50;;
3745;SDS011;1888;49.890;10.884;2022-09-03T13:59:24;14.80;;;14.40;;
3745;SDS011;1888;49.890;10.884;2022-09-03T14:02:06;14.67;;;14.27;;
3745;SDS011;1888;49.890;10.884;2022-09-03T14:04:41;15.00;;;14.60;;
3745;SDS011;1888;49.890;10.884;2022-09-03T14:07:12;14.90;;;14.50;;
3745;SDS011;1888;49.890;10.884;2022-09-03T14:09:47;15.10;;;14.70;;
3745;SDS011;1888;49.890;10.884;2022-09-03T14:12:20;15.20;;;14.70;;
3745;SDS011;1888;49.890;10.884;2022-09-03T14:14:53;14.90;;;14.50;;
3745;SDS011;1888;49.890;10.884;2022-09-03T14:17:29;14.87;;;14.47;;
3745;SDS011;1888;49.890;10.884;2022-09-03T14:20:00;14.97;;;14.57;;
3745;SDS011;1888;49.890;10.884;2022-09-03T14:22:33;14.77;;;14.37;;
3745;SDS011;1888;49.890;10.884;2022-09-03T14:25:10;15.10;;;14.63;;
3745;SDS011;1888;49.890;10.884;2022-09-03T14:27:44;14.90;;;14.50;;
3745;SDS011;1888;49.890;10.884;2022-09-03T14:30:17;14.97;;;14.57;;
3745;SDS011;1888;49.890;10.884;2022-09-03T14:32:46;15.07;;;14.60;;
3745;SDS011;1888;49.890;10.884;2022-09-03T14:35:23;14.90;;;14.50;;
3745;SDS011;1888;49.890;10.884;2022-09-03T14:38:08;14.90;;;14.50;;
3745;SDS011;1888;49.890;10.884;2022-09-03T14:40:56;15.10;;;14.60;;
3745;SDS011;1888;49.890;10.884;2022-09-03T14:46:20;14.87;;;14.47;;
3745;SDS011;1888;49.890;10.884;2022-09-03T14:49:07;15.30;;;14.80;;
3745;SDS011;1888;49.890;10.884;2022-09-03T14:51:58;15.30;;;14.80;;
3745;SDS011;1888;49.890;10.884;2022-09-03T14:54:35;14.70;;;14.30;;
3745;SDS011;1888;49.890;10.884;2022-09-03T14:57:10;14.77;;;14.37;;
3745;SDS011;1888;49.890;10.884;2022-09-03T15:00:01;14.70;;;14.30;;
3745;SDS011;1888;49.890;10.884;2022-09-03T15:23:55;14.57;;;14.17;;
3745;SDS011;1888;49.890;10.884;2022-09-03T15:26:41;14.77;;;14.37;;
3745;SDS011;1888;49.890;10.884;2022-09-03T15:29:39;14.60;;;14.20;;
3745;SDS011;1888;49.890;10.884;2022-09-03T15:32:17;15.10;;;14.60;;
3745;SDS011;1888;49.890;10.884;2022-09-03T15:34:54;15.10;;;14.60;;
3745;SDS011;1888;49.890;10.884;2022-09-03T15:37:33;14.90;;;14.50;;
3745;SDS011;1888;49.890;10.884;2022-09-03T15:40:21;15.07;;;14.57;;
3745;SDS011;1888;49.890;10.884;2022-09-03T15:43:06;15.17;;;14.67;;
3745;SDS011;1888;49.890;10.884;2022-09-03T15:45:37;15.10;;;14.60;;
3745;SDS011;1888;49.890;10.884;2022-09-03T15:48:10;14.77;;;14.37;;
3745;SDS011;1888;49.890;10.884;2022-09-03T15:50:47;14.80;;;14.40;;
3745;SDS011;1888;49.890;10.884;2022-09-03T15:56:36;14.60;;;14.20;;
3745;SDS011;1888;49.890;10.884;2022-09-03T15:59:06;14.87;;;14.40;;
3745;SDS011;1888;49.890;10.884;2022-09-03T16:01:39;15.20;;;14.70;;
3745;SDS011;1888;49.890;10.884;2022-09-03T16:04:21;15.10;;;14.63;;
3745;SDS011;1888;49.890;10.884;2022-09-03T16:06:55;14.97;;;14.50;;
3745;SDS011;1888;49.890;10.884;2022-09-03T16:09:34;15.10;;;14.60;;
3745;SDS011;1888;49.890;10.884;2022-09-03T16:12:07;15.13;;;14.63;;
3745;SDS011;1888;49.890;10.884;2022-09-03T16:14:40;15.03;;;14.53;;
3745;SDS011;1888;49.890;10.884;2022-09-03T16:17:12;15.30;;;14.80;;
3745;SDS011;1888;49.890;10.884;2022-09-03T16:19:51;15.03;;;14.63;;
3745;SDS011;1888;49.890;10.884;2022-09-03T16:22:21;15.20;;;14.70;;
3745;SDS011;1888;49.890;10.884;2022-09-03T16:24:55;14.63;;;14.23;;
3745;SDS011;1888;49.890;10.884;2022-09-03T16:33:15;14.70;;;14.30;;
3745;SDS011;1888;49.890;10.884;2022-09-03T16:35:49;14.67;;;14.27;;
3745;SDS011;1888;49.890;10.884;2022-09-03T16:38:23;14.80;;;14.40;;
3745;SDS011;1888;49.890;10.884;2022-09-03T16:40:54;14.83;;;14.37;;
3745;SDS011;1888;49.890;10.884;2022-09-03T16:43:25;14.87;;;14.37;;
3745;SDS011;1888;49.890;10.884;2022-09-03T16:45:57;14.57;;;14.17;;
3745;SDS011;1888;49.890;10.884;2022-09-03T16:48:34;14.73;;;14.33;;
3745;SDS011;1888;49.890;10.884;2022-09-03T16:51:12;14.87;;;14.47;;
3745;SDS011;1888;49.890;10.884;2022-09-03T16:53:49;15.07;;;14.60;;
3745;SDS011;1888;49.890;10.884;2022-09-03T16:59:16;15.17;;;14.67;;
3745;SDS011;1888;49.890;10.884;2022-09-03T17:01:52;14.90;;;14.40;;
3745;SDS011;1888;49.890;10.884;2022-09-03T17:04:39;15.03;;;14.53;;
3745;SDS011;1888;49.890;10.884;2022-09-03T17:07:17;15.00;;;14.50;;
3745;SDS011;1888;49.890;10.884;2022-09-03T17:09:49;14.97;;;14.47;;
3745;SDS011;1888;49.890;10.884;2022-09-03T17:15:29;15.00;;;14.50;;
3745;SDS011;1888;49.890;10.884;2022-09-03T17:20:54;15.37;;;14.87;;
3745;SDS011;1888;49.890;10.884;2022-09-03T17:23:40;15.70;;;15.20;;
3745;SDS011;1888;49.890;10.884;2022-09-03T17:29:22;16.10;;;15.60;;
3745;SDS011;1888;49.890;10.884;2022-09-03T17:31:55;15.60;;;15.10;;
3745;SDS011;1888;49.890;10.884;2022-09-03T17:34:29;15.70;;;15.20;;
3745;SDS011;1888;49.890;10.884;2022-09-03T17:37:11;16.07;;;15.57;;
3745;SDS011;1888;49.890;10.884;2022-09-03T17:39:51;15.73;;;15.23;;
3745;SDS011;1888;49.890;10.884;2022-09-03T17:42:24;15.63;;;15.13;;
3745;SDS011;1888;49.890;10.884;2022-09-03T17:45:00;15.03;;;14.63;;
3745;SDS011;1888;49.890;10.884;2022-09-03T17:47:37;15.10;;;14.60;;
3745;SDS011;1888;49.890;10.884;2022-09-03T17:53:21;15.00;;;14.60;;
3745;SDS011;1888;49.890;10.884;2022-09-03T17:55:55;15.30;;;14.80;;
3745;SDS011;1888;49.890;10.884;2022-09-03T18:01:32;15.00;;;14.40;;
3745;SDS011;1888;49.890;10.884;2022-09-03T18:04:17;13.87;;;13.47;;
3745;SDS011;1888;49.890;10.884;2022-09-03T18:10:03;8.50;;;8.40;;
3745;SDS011;1888;49.890;10.884;2022-09-03T18:12:42;7.27;;;7.17;;